Terminal Aerodrome Forecast
Issued by NWS Springfield, MO

Home | Current Version | Previous Version | Text Only | Print | Product List | Glossary On
Versions: 1 2 3 4 5 6 7 8 9 10 11 12 13 14 15 16 17 18 19 20 21 22 23 24 25 26 27 28 29 30 31 32 33 34
000
FTUS43 KSGF 191420 AAA
TAFSGF
TAF AMD
KSGF 191420Z 1914/2012 16012G20KT P6SM -SHRA VCTS OVC025CB
      WS020/21050KT
      TEMPO 1914/1917 3SM TSRA BR BKN015 OVC050CB
     FM191800 19024G34KT P6SM OVC050
      TEMPO 1918/1922 5SM -SHRA BR BKN025 OVC050
     FM200100 18020G26KT P6SM -SHRA SCT015 OVC025 WS020/20045KT=

USA.gov is the U.S. government's official web portal to all federal, state and local government web resources and services.